sensor_id;sensor_type;location;lat;lon;timestamp;P1;durP1;ratioP1;P2;durP2;ratioP2
13040;SDS011;6587;42.728;23.288;2022-12-07T00:00:33;30.27;;;14.37;;
13040;SDS011;6587;42.728;23.288;2022-12-07T00:03:01;30.83;;;14.90;;
13040;SDS011;6587;42.728;23.288;2022-12-07T00:05:29;31.53;;;14.70;;
13040;SDS011;6587;42.728;23.288;2022-12-07T00:07:55;31.80;;;15.03;;
13040;SDS011;6587;42.728;23.288;2022-12-07T00:10:22;30.23;;;15.67;;
13040;SDS011;6587;42.728;23.288;2022-12-07T00:12:49;29.53;;;15.37;;
13040;SDS011;6587;42.728;23.288;2022-12-07T00:15:16;28.83;;;16.07;;
13040;SDS011;6587;42.728;23.288;2022-12-07T00:17:43;31.20;;;15.87;;
13040;SDS011;6587;42.728;23.288;2022-12-07T00:20:11;34.67;;;16.50;;
13040;SDS011;6587;42.728;23.288;2022-12-07T00:22:38;31.60;;;16.23;;
13040;SDS011;6587;42.728;23.288;2022-12-07T00:25:05;31.50;;;16.23;;
13040;SDS011;6587;42.728;23.288;2022-12-07T00:27:31;30.27;;;15.50;;
13040;SDS011;6587;42.728;23.288;2022-12-07T00:29:58;30.13;;;16.37;;
13040;SDS011;6587;42.728;23.288;2022-12-07T00:32:25;28.80;;;15.83;;
13040;SDS011;6587;42.728;23.288;2022-12-07T00:34:51;36.07;;;16.30;;
13040;SDS011;6587;42.728;23.288;2022-12-07T00:37:19;30.03;;;15.43;;
13040;SDS011;6587;42.728;23.288;2022-12-07T00:39:46;32.43;;;16.27;;
13040;SDS011;6587;42.728;23.288;2022-12-07T00:42:12;35.63;;;16.80;;
13040;SDS011;6587;42.728;23.288;2022-12-07T00:44:39;34.73;;;15.33;;
13040;SDS011;6587;42.728;23.288;2022-12-07T00:47:06;35.13;;;16.47;;
13040;SDS011;6587;42.728;23.288;2022-12-07T00:49:32;32.20;;;15.90;;
13040;SDS011;6587;42.728;23.288;2022-12-07T00:51:59;27.97;;;14.90;;
13040;SDS011;6587;42.728;23.288;2022-12-07T00:54:27;34.23;;;15.87;;
13040;SDS011;6587;42.728;23.288;2022-12-07T00:56:54;32.10;;;16.33;;
13040;SDS011;6587;42.728;23.288;2022-12-07T00:59:20;29.80;;;15.93;;
13040;SDS011;6587;42.728;23.288;2022-12-07T01:01:47;36.63;;;17.33;;
13040;SDS011;6587;42.728;23.288;2022-12-07T01:04:14;35.67;;;16.57;;
13040;SDS011;6587;42.728;23.288;2022-12-07T01:06:41;29.57;;;15.57;;
13040;SDS011;6587;42.728;23.288;2022-12-07T01:09:07;37.33;;;17.90;;
13040;SDS011;6587;42.728;23.288;2022-12-07T01:11:35;31.70;;;16.57;;
13040;SDS011;6587;42.728;23.288;2022-12-07T01:14:02;36.13;;;17.47;;
13040;SDS011;6587;42.728;23.288;2022-12-07T01:16:29;29.83;;;15.30;;
13040;SDS011;6587;42.728;23.288;2022-12-07T01:18:57;36.60;;;17.97;;
13040;SDS011;6587;42.728;23.288;2022-12-07T01:21:25;33.23;;;16.83;;
13040;SDS011;6587;42.728;23.288;2022-12-07T01:23:52;30.10;;;15.50;;
13040;SDS011;6587;42.728;23.288;2022-12-07T01:26:19;34.13;;;16.53;;
13040;SDS011;6587;42.728;23.288;2022-12-07T01:28:48;32.43;;;16.17;;
13040;SDS011;6587;42.728;23.288;2022-12-07T01:31:15;32.57;;;16.50;;
13040;SDS011;6587;42.728;23.288;2022-12-07T01:33:43;30.93;;;16.60;;
13040;SDS011;6587;42.728;23.288;2022-12-07T01:36:12;34.93;;;16.33;;
13040;SDS011;6587;42.728;23.288;2022-12-07T01:38:40;32.93;;;16.10;;
13040;SDS011;6587;42.728;23.288;2022-12-07T01:41:07;33.47;;;16.27;;
13040;SDS011;6587;42.728;23.288;2022-12-07T01:43:34;31.87;;;16.77;;
13040;SDS011;6587;42.728;23.288;2022-12-07T01:46:04;33.93;;;17.27;;
13040;SDS011;6587;42.728;23.288;2022-12-07T01:48:31;34.03;;;15.93;;
13040;SDS011;6587;42.728;23.288;2022-12-07T01:51:00;34.13;;;16.10;;
13040;SDS011;6587;42.728;23.288;2022-12-07T01:53:28;35.73;;;16.67;;
13040;SDS011;6587;42.728;23.288;2022-12-07T01:55:55;33.60;;;15.50;;
13040;SDS011;6587;42.728;23.288;2022-12-07T01:58:22;32.20;;;15.60;;
13040;SDS011;6587;42.728;23.288;2022-12-07T02:00:50;30.17;;;16.43;;
13040;SDS011;6587;42.728;23.288;2022-12-07T02:03:19;31.30;;;17.17;;
13040;SDS011;6587;42.728;23.288;2022-12-07T02:05:48;31.00;;;16.27;;
13040;SDS011;6587;42.728;23.288;2022-12-07T02:08:15;33.70;;;17.07;;
13040;SDS011;6587;42.728;23.288;2022-12-07T02:10:42;32.53;;;16.50;;
13040;SDS011;6587;42.728;23.288;2022-12-07T02:13:10;29.87;;;15.47;;
13040;SDS011;6587;42.728;23.288;2022-12-07T02:15:44;27.67;;;14.90;;
13040;SDS011;6587;42.728;23.288;2022-12-07T02:18:14;33.03;;;15.47;;
13040;SDS011;6587;42.728;23.288;2022-12-07T02:20:44;32.40;;;16.30;;
13040;SDS011;6587;42.728;23.288;2022-12-07T02:29:06;36.67;;;16.77;;
13040;SDS011;6587;42.728;23.288;2022-12-07T02:31:36;32.20;;;16.33;;
13040;SDS011;6587;42.728;23.288;2022-12-07T02:34:04;35.53;;;16.57;;
13040;SDS011;6587;42.728;23.288;2022-12-07T02:36:32;35.20;;;15.50;;
13040;SDS011;6587;42.728;23.288;2022-12-07T02:39:01;32.40;;;16.17;;
13040;SDS011;6587;42.728;23.288;2022-12-07T02:41:30;32.07;;;16.37;;
13040;SDS011;6587;42.728;23.288;2022-12-07T02:44:00;32.23;;;16.60;;
13040;SDS011;6587;42.728;23.288;2022-12-07T02:46:30;35.80;;;17.63;;
13040;SDS011;6587;42.728;23.288;2022-12-07T02:48:57;31.43;;;16.90;;
13040;SDS011;6587;42.728;23.288;2022-12-07T02:51:25;34.37;;;17.67;;
13040;SDS011;6587;42.728;23.288;2022-12-07T02:53:52;36.33;;;17.50;;
13040;SDS011;6587;42.728;23.288;2022-12-07T02:56:20;32.00;;;17.30;;
13040;SDS011;6587;42.728;23.288;2022-12-07T02:58:50;32.37;;;16.33;;
13040;SDS011;6587;42.728;23.288;2022-12-07T03:01:21;33.90;;;16.57;;
13040;SDS011;6587;42.728;23.288;2022-12-07T03:04:00;31.23;;;16.40;;
13040;SDS011;6587;42.728;23.288;2022-12-07T03:06:31;40.13;;;19.73;;
13040;SDS011;6587;42.728;23.288;2022-12-07T03:09:00;40.23;;;20.10;;
13040;SDS011;6587;42.728;23.288;2022-12-07T03:11:29;39.90;;;19.73;;
13040;SDS011;6587;42.728;23.288;2022-12-07T03:14:02;39.30;;;20.03;;
13040;SDS011;6587;42.728;23.288;2022-12-07T03:16:31;48.67;;;21.93;;
13040;SDS011;6587;42.728;23.288;2022-12-07T03:19:03;37.83;;;20.03;;
13040;SDS011;6587;42.728;23.288;2022-12-07T03:21:31;41.37;;;22.10;;
13040;SDS011;6587;42.728;23.288;2022-12-07T03:23:59;42.87;;;20.83;;
13040;SDS011;6587;42.728;23.288;2022-12-07T03:26:28;38.03;;;21.60;;
13040;SDS011;6587;42.728;23.288;2022-12-07T03:28:58;44.83;;;22.43;;
13040;SDS011;6587;42.728;23.288;2022-12-07T03:31:26;41.17;;;22.33;;
13040;SDS011;6587;42.728;23.288;2022-12-07T03:33:57;64.40;;;29.43;;
13040;SDS011;6587;42.728;23.288;2022-12-07T03:36:29;59.63;;;29.97;;
13040;SDS011;6587;42.728;23.288;2022-12-07T03:38:57;68.63;;;31.20;;
13040;SDS011;6587;42.728;23.288;2022-12-07T03:41:28;59.00;;;29.10;;
13040;SDS011;6587;42.728;23.288;2022-12-07T03:43:56;67.87;;;29.37;;
13040;SDS011;6587;42.728;23.288;2022-12-07T03:46:25;67.03;;;31.37;;
13040;SDS011;6587;42.728;23.288;2022-12-07T03:48:56;72.10;;;35.13;;
13040;SDS011;6587;42.728;23.288;2022-12-07T03:51:25;68.30;;;34.37;;
13040;SDS011;6587;42.728;23.288;2022-12-07T03:53:57;58.87;;;28.53;;
13040;SDS011;6587;42.728;23.288;2022-12-07T03:56:24;60.53;;;28.33;;
13040;SDS011;6587;42.728;23.288;2022-12-07T03:58:52;48.53;;;27.63;;
13040;SDS011;6587;42.728;23.288;2022-12-07T04:01:19;62.67;;;27.70;;
13040;SDS011;6587;42.728;23.288;2022-12-07T04:03:46;56.33;;;27.73;;
13040;SDS011;6587;42.728;23.288;2022-12-07T04:06:13;54.27;;;25.80;;
13040;SDS011;6587;42.728;23.288;2022-12-07T04:08:40;54.00;;;24.37;;
13040;SDS011;6587;42.728;23.288;2022-12-07T04:11:08;54.17;;;24.57;;
13040;SDS011;6587;42.728;23.288;2022-12-07T04:13:34;47.80;;;24.73;;
13040;SDS011;6587;42.728;23.288;2022-12-07T04:16:21;48.37;;;23.60;;
13040;SDS011;6587;42.728;23.288;2022-12-07T04:18:48;52.57;;;23.77;;
13040;SDS011;6587;42.728;23.288;2022-12-07T04:21:15;54.57;;;24.83;;
13040;SDS011;6587;42.728;23.288;2022-12-07T04:23:42;50.17;;;26.43;;
13040;SDS011;6587;42.728;23.288;2022-12-07T04:26:10;53.40;;;25.20;;
13040;SDS011;6587;42.728;23.288;2022-12-07T04:28:36;54.13;;;26.07;;
13040;SDS011;6587;42.728;23.288;2022-12-07T04:31:03;51.97;;;26.47;;
13040;SDS011;6587;42.728;23.288;2022-12-07T04:33:30;54.00;;;24.67;;
13040;SDS011;6587;42.728;23.288;2022-12-07T04:35:57;50.00;;;23.23;;
13040;SDS011;6587;42.728;23.288;2022-12-07T04:38:23;48.50;;;23.67;;
13040;SDS011;6587;42.728;23.288;2022-12-07T04:40:50;48.10;;;24.47;;
13040;SDS011;6587;42.728;23.288;2022-12-07T04:43:18;48.17;;;25.90;;
13040;SDS011;6587;42.728;23.288;2022-12-07T04:45:45;50.87;;;26.43;;
13040;SDS011;6587;42.728;23.288;2022-12-07T04:48:12;49.67;;;24.93;;
13040;SDS011;6587;42.728;23.288;2022-12-07T04:50:39;47.20;;;25.10;;
13040;SDS011;6587;42.728;23.288;2022-12-07T04:53:05;49.70;;;25.87;;
13040;SDS011;6587;42.728;23.288;2022-12-07T04:55:34;50.27;;;26.47;;
13040;SDS011;6587;42.728;23.288;2022-12-07T04:58:01;53.07;;;27.60;;
13040;SDS011;6587;42.728;23.288;2022-12-07T05:00:29;51.73;;;25.87;;
13040;SDS011;6587;42.728;23.288;2022-12-07T05:02:56;51.03;;;25.27;;
13040;SDS011;6587;42.728;23.288;2022-12-07T05:05:23;53.07;;;24.33;;
13040;SDS011;6587;42.728;23.288;2022-12-07T05:07:50;44.80;;;23.43;;
13040;SDS011;6587;42.728;23.288;2022-12-07T05:10:16;51.03;;;25.20;;
13040;SDS011;6587;42.728;23.288;2022-12-07T05:12:43;45.40;;;23.17;;
13040;SDS011;6587;42.728;23.288;2022-12-07T05:15:10;46.03;;;23.93;;
13040;SDS011;6587;42.728;23.288;2022-12-07T05:17:38;54.57;;;26.97;;
13040;SDS011;6587;42.728;23.288;2022-12-07T05:20:07;52.40;;;26.37;;
13040;SDS011;6587;42.728;23.288;2022-12-07T05:22:34;58.37;;;28.40;;
13040;SDS011;6587;42.728;23.288;2022-12-07T05:25:01;63.83;;;29.27;;
13040;SDS011;6587;42.728;23.288;2022-12-07T05:27:28;84.77;;;40.33;;
13040;SDS011;6587;42.728;23.288;2022-12-07T05:29:54;95.27;;;43.47;;
13040;SDS011;6587;42.728;23.288;2022-12-07T05:32:21;103.13;;;49.60;;
13040;SDS011;6587;42.728;23.288;2022-12-07T05:34:49;140.87;;;74.40;;
13040;SDS011;6587;42.728;23.288;2022-12-07T05:37:16;109.17;;;52.90;;
13040;SDS011;6587;42.728;23.288;2022-12-07T05:39:43;94.83;;;46.93;;
13040;SDS011;6587;42.728;23.288;2022-12-07T05:42:10;114.27;;;58.80;;
13040;SDS011;6587;42.728;23.288;2022-12-07T05:44:39;122.07;;;60.23;;
13040;SDS011;6587;42.728;23.288;2022-12-07T05:47:06;114.27;;;56.90;;
13040;SDS011;6587;42.728;23.288;2022-12-07T05:49:32;128.83;;;62.23;;
13040;SDS011;6587;42.728;23.288;2022-12-07T05:52:00;93.33;;;47.80;;
13040;SDS011;6587;42.728;23.288;2022-12-07T05:54:27;93.30;;;45.60;;
13040;SDS011;6587;42.728;23.288;2022-12-07T05:56:54;89.50;;;44.37;;
13040;SDS011;6587;42.728;23.288;2022-12-07T05:59:21;84.73;;;42.27;;
13040;SDS011;6587;42.728;23.288;2022-12-07T06:01:49;84.17;;;43.77;;
13040;SDS011;6587;42.728;23.288;2022-12-07T06:04:16;75.57;;;38.67;;
13040;SDS011;6587;42.728;23.288;2022-12-07T06:06:42;77.90;;;40.33;;
13040;SDS011;6587;42.728;23.288;2022-12-07T06:09:10;83.30;;;39.87;;
13040;SDS011;6587;42.728;23.288;2022-12-07T06:11:38;75.10;;;38.13;;
13040;SDS011;6587;42.728;23.288;2022-12-07T06:14:22;73.90;;;36.57;;
13040;SDS011;6587;42.728;23.288;2022-12-07T06:16:49;74.63;;;38.67;;
13040;SDS011;6587;42.728;23.288;2022-12-07T06:19:15;73.53;;;38.13;;
13040;SDS011;6587;42.728;23.288;2022-12-07T06:21:42;75.57;;;37.40;;
13040;SDS011;6587;42.728;23.288;2022-12-07T06:24:11;79.63;;;38.03;;
13040;SDS011;6587;42.728;23.288;2022-12-07T06:26:38;64.80;;;32.67;;
13040;SDS011;6587;42.728;23.288;2022-12-07T06:29:05;69.77;;;34.10;;
13040;SDS011;6587;42.728;23.288;2022-12-07T06:31:31;73.57;;;35.63;;
13040;SDS011;6587;42.728;23.288;2022-12-07T06:33:58;86.83;;;40.57;;
13040;SDS011;6587;42.728;23.288;2022-12-07T06:36:25;80.60;;;40.07;;
13040;SDS011;6587;42.728;23.288;2022-12-07T06:38:52;89.93;;;42.07;;
13040;SDS011;6587;42.728;23.288;2022-12-07T06:41:20;84.70;;;45.80;;
13040;SDS011;6587;42.728;23.288;2022-12-07T06:43:46;105.50;;;49.27;;
13040;SDS011;6587;42.728;23.288;2022-12-07T06:46:13;91.97;;;43.47;;
13040;SDS011;6587;42.728;23.288;2022-12-07T06:48:40;98.83;;;44.90;;
13040;SDS011;6587;42.728;23.288;2022-12-07T06:51:07;78.77;;;38.57;;
13040;SDS011;6587;42.728;23.288;2022-12-07T06:53:34;80.20;;;36.07;;
13040;SDS011;6587;42.728;23.288;2022-12-07T06:56:00;70.60;;;35.20;;
13040;SDS011;6587;42.728;23.288;2022-12-07T06:58:29;77.80;;;36.47;;
13040;SDS011;6587;42.728;23.288;2022-12-07T07:00:56;70.60;;;37.13;;
13040;SDS011;6587;42.728;23.288;2022-12-07T07:03:22;72.73;;;34.50;;
13040;SDS011;6587;42.728;23.288;2022-12-07T07:05:49;81.33;;;38.57;;
13040;SDS011;6587;42.728;23.288;2022-12-07T07:08:15;62.43;;;35.57;;
13040;SDS011;6587;42.728;23.288;2022-12-07T07:10:42;63.97;;;31.67;;
13040;SDS011;6587;42.728;23.288;2022-12-07T07:13:09;56.13;;;30.73;;
13040;SDS011;6587;42.728;23.288;2022-12-07T07:15:37;57.07;;;28.70;;
13040;SDS011;6587;42.728;23.288;2022-12-07T07:18:04;63.73;;;29.10;;
13040;SDS011;6587;42.728;23.288;2022-12-07T07:20:31;55.50;;;28.83;;
13040;SDS011;6587;42.728;23.288;2022-12-07T07:22:57;61.83;;;30.23;;
13040;SDS011;6587;42.728;23.288;2022-12-07T07:25:24;65.03;;;30.37;;
13040;SDS011;6587;42.728;23.288;2022-12-07T07:27:50;64.10;;;29.37;;
13040;SDS011;6587;42.728;23.288;2022-12-07T07:30:17;59.73;;;29.60;;
13040;SDS011;6587;42.728;23.288;2022-12-07T07:32:45;63.43;;;29.07;;
13040;SDS011;6587;42.728;23.288;2022-12-07T07:35:11;62.10;;;32.03;;
13040;SDS011;6587;42.728;23.288;2022-12-07T07:37:39;70.07;;;29.87;;
13040;SDS011;6587;42.728;23.288;2022-12-07T07:40:06;57.40;;;29.27;;
13040;SDS011;6587;42.728;23.288;2022-12-07T07:42:33;60.27;;;28.00;;
13040;SDS011;6587;42.728;23.288;2022-12-07T07:44:59;63.73;;;29.23;;
13040;SDS011;6587;42.728;23.288;2022-12-07T07:47:26;53.30;;;27.20;;
13040;SDS011;6587;42.728;23.288;2022-12-07T07:49:55;52.97;;;25.37;;
13040;SDS011;6587;42.728;23.288;2022-12-07T07:52:22;53.73;;;25.80;;
13040;SDS011;6587;42.728;23.288;2022-12-07T07:54:49;54.20;;;25.00;;
13040;SDS011;6587;42.728;23.288;2022-12-07T07:57:15;50.57;;;25.40;;
13040;SDS011;6587;42.728;23.288;2022-12-07T07:59:42;56.60;;;27.73;;
13040;SDS011;6587;42.728;23.288;2022-12-07T08:02:09;56.50;;;30.90;;
13040;SDS011;6587;42.728;23.288;2022-12-07T08:04:39;62.67;;;30.90;;
13040;SDS011;6587;42.728;23.288;2022-12-07T08:07:07;66.87;;;32.90;;
13040;SDS011;6587;42.728;23.288;2022-12-07T08:09:34;68.87;;;35.60;;
13040;SDS011;6587;42.728;23.288;2022-12-07T08:12:01;74.23;;;37.37;;
13040;SDS011;6587;42.728;23.288;2022-12-07T08:14:27;77.20;;;37.17;;
13040;SDS011;6587;42.728;23.288;2022-12-07T08:16:54;71.77;;;35.67;;
13040;SDS011;6587;42.728;23.288;2022-12-07T08:19:21;63.97;;;34.87;;
13040;SDS011;6587;42.728;23.288;2022-12-07T08:21:47;74.47;;;38.83;;
13040;SDS011;6587;42.728;23.288;2022-12-07T08:24:16;65.83;;;34.83;;
13040;SDS011;6587;42.728;23.288;2022-12-07T08:26:43;67.17;;;36.03;;
13040;SDS011;6587;42.728;23.288;2022-12-07T08:29:12;78.87;;;41.40;;
13040;SDS011;6587;42.728;23.288;2022-12-07T08:31:38;85.87;;;42.67;;
13040;SDS011;6587;42.728;23.288;2022-12-07T08:34:05;81.97;;;39.33;;
13040;SDS011;6587;42.728;23.288;2022-12-07T08:36:32;71.63;;;36.20;;
13040;SDS011;6587;42.728;23.288;2022-12-07T08:38:58;71.07;;;34.90;;
13040;SDS011;6587;42.728;23.288;2022-12-07T08:41:26;69.57;;;34.87;;
13040;SDS011;6587;42.728;23.288;2022-12-07T08:43:53;66.47;;;32.90;;
13040;SDS011;6587;42.728;23.288;2022-12-07T08:46:21;64.67;;;32.23;;
13040;SDS011;6587;42.728;23.288;2022-12-07T08:48:51;57.80;;;30.40;;
13040;SDS011;6587;42.728;23.288;2022-12-07T08:51:19;56.47;;;30.87;;
13040;SDS011;6587;42.728;23.288;2022-12-07T08:53:46;58.53;;;30.17;;
13040;SDS011;6587;42.728;23.288;2022-12-07T08:56:12;55.30;;;28.87;;
13040;SDS011;6587;42.728;23.288;2022-12-07T08:58:41;51.23;;;28.10;;
13040;SDS011;6587;42.728;23.288;2022-12-07T09:01:07;56.17;;;29.57;;
13040;SDS011;6587;42.728;23.288;2022-12-07T09:03:34;51.97;;;30.07;;
13040;SDS011;6587;42.728;23.288;2022-12-07T09:06:01;60.27;;;29.80;;
13040;SDS011;6587;42.728;23.288;2022-12-07T09:08:28;49.70;;;28.73;;
13040;SDS011;6587;42.728;23.288;2022-12-07T09:10:57;62.57;;;28.43;;
13040;SDS011;6587;42.728;23.288;2022-12-07T09:13:24;45.77;;;25.50;;
13040;SDS011;6587;42.728;23.288;2022-12-07T09:15:52;52.77;;;28.57;;
13040;SDS011;6587;42.728;23.288;2022-12-07T09:18:18;42.57;;;24.17;;
13040;SDS011;6587;42.728;23.288;2022-12-07T09:20:45;48.03;;;26.97;;
13040;SDS011;6587;42.728;23.288;2022-12-07T09:23:12;48.97;;;26.73;;
13040;SDS011;6587;42.728;23.288;2022-12-07T09:25:38;48.40;;;25.60;;
13040;SDS011;6587;42.728;23.288;2022-12-07T09:28:06;51.60;;;26.40;;
13040;SDS011;6587;42.728;23.288;2022-12-07T09:30:33;48.23;;;27.30;;
13040;SDS011;6587;42.728;23.288;2022-12-07T09:33:01;49.93;;;27.13;;
13040;SDS011;6587;42.728;23.288;2022-12-07T09:35:27;53.97;;;28.20;;
13040;SDS011;6587;42.728;23.288;2022-12-07T09:37:54;48.90;;;26.70;;
13040;SDS011;6587;42.728;23.288;2022-12-07T09:40:21;50.20;;;27.43;;
13040;SDS011;6587;42.728;23.288;2022-12-07T09:42:49;54.50;;;28.43;;
13040;SDS011;6587;42.728;23.288;2022-12-07T09:45:19;56.73;;;29.80;;
13040;SDS011;6587;42.728;23.288;2022-12-07T09:47:46;51.53;;;29.53;;
13040;SDS011;6587;42.728;23.288;2022-12-07T09:50:14;57.17;;;31.33;;
13040;SDS011;6587;42.728;23.288;2022-12-07T09:52:42;64.10;;;32.13;;
13040;SDS011;6587;42.728;23.288;2022-12-07T09:55:11;54.17;;;29.50;;
13040;SDS011;6587;42.728;23.288;2022-12-07T09:57:38;60.40;;;31.47;;
13040;SDS011;6587;42.728;23.288;2022-12-07T10:00:07;55.57;;;30.73;;
13040;SDS011;6587;42.728;23.288;2022-12-07T10:02:35;58.13;;;29.03;;
13040;SDS011;6587;42.728;23.288;2022-12-07T10:05:03;53.50;;;29.77;;
13040;SDS011;6587;42.728;23.288;2022-12-07T10:07:31;55.80;;;30.40;;
13040;SDS011;6587;42.728;23.288;2022-12-07T10:09:57;55.77;;;30.53;;
13040;SDS011;6587;42.728;23.288;2022-12-07T10:12:24;55.23;;;30.67;;
13040;SDS011;6587;42.728;23.288;2022-12-07T10:14:55;56.87;;;30.43;;
13040;SDS011;6587;42.728;23.288;2022-12-07T10:17:27;58.90;;;30.57;;
13040;SDS011;6587;42.728;23.288;2022-12-07T10:20:02;57.93;;;30.07;;
13040;SDS011;6587;42.728;23.288;2022-12-07T10:22:35;59.13;;;30.57;;
13040;SDS011;6587;42.728;23.288;2022-12-07T10:25:07;59.47;;;30.97;;
13040;SDS011;6587;42.728;23.288;2022-12-07T10:27:34;56.63;;;31.27;;
13040;SDS011;6587;42.728;23.288;2022-12-07T10:30:01;54.50;;;31.30;;
13040;SDS011;6587;42.728;23.288;2022-12-07T10:32:35;63.30;;;32.50;;
13040;SDS011;6587;42.728;23.288;2022-12-07T10:35:24;54.37;;;30.30;;
13040;SDS011;6587;42.728;23.288;2022-12-07T10:37:53;56.23;;;30.83;;
13040;SDS011;6587;42.728;23.288;2022-12-07T10:40:24;55.57;;;30.33;;
13040;SDS011;6587;42.728;23.288;2022-12-07T10:43:00;56.77;;;29.63;;
13040;SDS011;6587;42.728;23.288;2022-12-07T10:45:27;52.47;;;29.17;;
13040;SDS011;6587;42.728;23.288;2022-12-07T10:47:55;49.37;;;28.93;;
13040;SDS011;6587;42.728;23.288;2022-12-07T10:50:28;57.87;;;28.97;;
13040;SDS011;6587;42.728;23.288;2022-12-07T10:53:03;49.33;;;28.43;;
13040;SDS011;6587;42.728;23.288;2022-12-07T10:55:34;52.70;;;30.10;;
13040;SDS011;6587;42.728;23.288;2022-12-07T10:58:13;50.07;;;27.67;;
13040;SDS011;6587;42.728;23.288;2022-12-07T11:00:44;48.23;;;27.00;;
13040;SDS011;6587;42.728;23.288;2022-12-07T11:03:22;45.07;;;26.33;;
13040;SDS011;6587;42.728;23.288;2022-12-07T11:05:54;45.87;;;23.60;;
13040;SDS011;6587;42.728;23.288;2022-12-07T11:08:28;42.87;;;23.40;;
13040;SDS011;6587;42.728;23.288;2022-12-07T11:11:01;40.67;;;23.43;;
13040;SDS011;6587;42.728;23.288;2022-12-07T11:13:34;40.67;;;22.13;;
13040;SDS011;6587;42.728;23.288;2022-12-07T11:18:59;37.00;;;20.47;;
13040;SDS011;6587;42.728;23.288;2022-12-07T11:21:29;38.00;;;20.47;;
13040;SDS011;6587;42.728;23.288;2022-12-07T11:24:01;34.67;;;20.33;;
13040;SDS011;6587;42.728;23.288;2022-12-07T11:26:37;40.43;;;22.37;;
13040;SDS011;6587;42.728;23.288;2022-12-07T11:29:13;36.93;;;20.90;;
13040;SDS011;6587;42.728;23.288;2022-12-07T11:31:48;35.73;;;19.33;;
13040;SDS011;6587;42.728;23.288;2022-12-07T11:34:21;35.83;;;20.03;;
13040;SDS011;6587;42.728;23.288;2022-12-07T11:36:50;32.93;;;19.40;;
13040;SDS011;6587;42.728;23.288;2022-12-07T11:39:22;30.10;;;18.50;;
13040;SDS011;6587;42.728;23.288;2022-12-07T11:41:52;30.53;;;18.10;;
13040;SDS011;6587;42.728;23.288;2022-12-07T11:44:24;31.93;;;18.90;;
13040;SDS011;6587;42.728;23.288;2022-12-07T11:46:54;29.20;;;15.87;;
13040;SDS011;6587;42.728;23.288;2022-12-07T11:49:23;28.77;;;17.33;;
13040;SDS011;6587;42.728;23.288;2022-12-07T11:51:54;30.63;;;16.10;;
13040;SDS011;6587;42.728;23.288;2022-12-07T11:54:27;24.93;;;15.10;;
13040;SDS011;6587;42.728;23.288;2022-12-07T11:56:56;24.73;;;15.60;;
13040;SDS011;6587;42.728;23.288;2022-12-07T11:59:28;27.07;;;15.70;;
13040;SDS011;6587;42.728;23.288;2022-12-07T12:01:58;25.10;;;15.90;;
13040;SDS011;6587;42.728;23.288;2022-12-07T12:04:32;22.97;;;14.30;;
13040;SDS011;6587;42.728;23.288;2022-12-07T12:06:59;22.63;;;14.40;;
13040;SDS011;6587;42.728;23.288;2022-12-07T12:09:28;22.10;;;13.60;;
13040;SDS011;6587;42.728;23.288;2022-12-07T12:12:01;23.10;;;14.50;;
13040;SDS011;6587;42.728;23.288;2022-12-07T12:14:36;26.13;;;14.03;;
13040;SDS011;6587;42.728;23.288;2022-12-07T12:17:17;26.90;;;15.77;;
13040;SDS011;6587;42.728;23.288;2022-12-07T12:19:55;26.03;;;15.53;;
13040;SDS011;6587;42.728;23.288;2022-12-07T12:22:26;22.40;;;14.67;;
13040;SDS011;6587;42.728;23.288;2022-12-07T12:24:56;26.20;;;14.80;;
13040;SDS011;6587;42.728;23.288;2022-12-07T12:27:23;28.10;;;15.30;;
13040;SDS011;6587;42.728;23.288;2022-12-07T12:29:52;28.30;;;15.50;;
13040;SDS011;6587;42.728;23.288;2022-12-07T12:32:19;28.67;;;15.30;;
13040;SDS011;6587;42.728;23.288;2022-12-07T12:35:01;27.53;;;16.03;;
13040;SDS011;6587;42.728;23.288;2022-12-07T12:37:43;26.53;;;15.97;;
13040;SDS011;6587;42.728;23.288;2022-12-07T12:42:58;27.40;;;15.00;;
13040;SDS011;6587;42.728;23.288;2022-12-07T12:45:25;23.33;;;14.20;;
13040;SDS011;6587;42.728;23.288;2022-12-07T12:47:53;26.20;;;13.40;;
13040;SDS011;6587;42.728;23.288;2022-12-07T12:50:20;23.20;;;14.80;;
13040;SDS011;6587;42.728;23.288;2022-12-07T12:53:01;27.17;;;15.07;;
13040;SDS011;6587;42.728;23.288;2022-12-07T12:58:35;24.97;;;14.70;;
13040;SDS011;6587;42.728;23.288;2022-12-07T13:03:51;26.70;;;15.70;;
13040;SDS011;6587;42.728;23.288;2022-12-07T13:06:19;27.37;;;13.73;;
13040;SDS011;6587;42.728;23.288;2022-12-07T13:08:46;29.97;;;14.77;;
13040;SDS011;6587;42.728;23.288;2022-12-07T13:11:16;24.37;;;14.70;;
13040;SDS011;6587;42.728;23.288;2022-12-07T13:13:45;19.07;;;13.17;;
13040;SDS011;6587;42.728;23.288;2022-12-07T13:18:57;25.17;;;13.53;;
13040;SDS011;6587;42.728;23.288;2022-12-07T13:21:42;19.20;;;11.83;;
13040;SDS011;6587;42.728;23.288;2022-12-07T13:24:10;18.83;;;11.50;;
13040;SDS011;6587;42.728;23.288;2022-12-07T13:26:38;25.00;;;12.33;;
13040;SDS011;6587;42.728;23.288;2022-12-07T13:29:11;23.53;;;12.33;;
13040;SDS011;6587;42.728;23.288;2022-12-07T13:31:38;22.63;;;12.93;;
13040;SDS011;6587;42.728;23.288;2022-12-07T13:34:28;22.87;;;13.27;;
13040;SDS011;6587;42.728;23.288;2022-12-07T13:36:54;23.07;;;12.70;;
13040;SDS011;6587;42.728;23.288;2022-12-07T13:39:22;22.03;;;12.70;;
13040;SDS011;6587;42.728;23.288;2022-12-07T13:41:50;22.97;;;11.53;;
13040;SDS011;6587;42.728;23.288;2022-12-07T13:44:18;19.17;;;11.37;;
13040;SDS011;6587;42.728;23.288;2022-12-07T13:46:48;22.17;;;11.90;;
13040;SDS011;6587;42.728;23.288;2022-12-07T13:49:19;19.43;;;11.97;;
13040;SDS011;6587;42.728;23.288;2022-12-07T13:51:46;19.27;;;11.83;;
13040;SDS011;6587;42.728;23.288;2022-12-07T13:54:13;21.63;;;11.60;;
13040;SDS011;6587;42.728;23.288;2022-12-07T13:56:40;22.17;;;13.13;;
13040;SDS011;6587;42.728;23.288;2022-12-07T13:59:10;27.77;;;13.20;;
13040;SDS011;6587;42.728;23.288;2022-12-07T14:01:40;23.97;;;13.33;;
13040;SDS011;6587;42.728;23.288;2022-12-07T14:04:17;17.73;;;12.83;;
13040;SDS011;6587;42.728;23.288;2022-12-07T14:06:46;21.27;;;11.73;;
13040;SDS011;6587;42.728;23.288;2022-12-07T14:09:18;25.83;;;14.27;;
13040;SDS011;6587;42.728;23.288;2022-12-07T14:11:45;29.93;;;14.90;;
13040;SDS011;6587;42.728;23.288;2022-12-07T14:14:13;35.13;;;16.40;;
13040;SDS011;6587;42.728;23.288;2022-12-07T14:16:41;26.37;;;14.33;;
13040;SDS011;6587;42.728;23.288;2022-12-07T14:19:38;29.07;;;16.43;;
13040;SDS011;6587;42.728;23.288;2022-12-07T14:22:06;24.33;;;15.10;;
13040;SDS011;6587;42.728;23.288;2022-12-07T14:24:40;27.87;;;16.47;;
13040;SDS011;6587;42.728;23.288;2022-12-07T14:27:15;34.70;;;18.70;;
13040;SDS011;6587;42.728;23.288;2022-12-07T14:29:43;48.17;;;27.83;;
13040;SDS011;6587;42.728;23.288;2022-12-07T14:32:17;50.23;;;29.27;;
13040;SDS011;6587;42.728;23.288;2022-12-07T14:37:36;49.30;;;22.80;;
13040;SDS011;6587;42.728;23.288;2022-12-07T14:40:05;42.63;;;26.90;;
13040;SDS011;6587;42.728;23.288;2022-12-07T14:42:32;65.40;;;25.13;;
13040;SDS011;6587;42.728;23.288;2022-12-07T14:44:59;42.00;;;18.70;;
13040;SDS011;6587;42.728;23.288;2022-12-07T14:47:27;30.57;;;16.60;;
13040;SDS011;6587;42.728;23.288;2022-12-07T14:49:54;93.43;;;44.17;;
13040;SDS011;6587;42.728;23.288;2022-12-07T14:52:21;98.50;;;41.37;;